sensor_id;sensor_type;location;lat;lon;timestamp;pressure;altitude;pressure_sealevel;temperature;humidity
10652;BME280;5374;42.742;23.266;2024-02-16T00:02:06;96000.22;;;2.20;84.64
10652;BME280;5374;42.742;23.266;2024-02-16T00:04:54;95997.50;;;2.14;84.94
10652;BME280;5374;42.742;23.266;2024-02-16T00:07:42;96005.28;;;2.07;84.97
10652;BME280;5374;42.742;23.266;2024-02-16T00:10:29;96074.69;;;2.62;84.30
10652;BME280;5374;42.742;23.266;2024-02-16T00:13:16;96004.09;;;2.10;85.05
10652;BME280;5374;42.742;23.266;2024-02-16T00:16:04;96018.56;;;2.05;85.64
10652;BME280;5374;42.742;23.266;2024-02-16T00:18:51;96038.41;;;2.29;86.24
10652;BME280;5374;42.742;23.266;2024-02-16T00:21:39;96067.53;;;2.20;86.71
10652;BME280;5374;42.742;23.266;2024-02-16T00:24:27;96016.78;;;1.91;87.78
10652;BME280;5374;42.742;23.266;2024-02-16T00:27:17;95994.91;;;1.84;88.15
10652;BME280;5374;42.742;23.266;2024-02-16T00:30:05;96045.41;;;2.22;87.98
10652;BME280;5374;42.742;23.266;2024-02-16T00:32:53;96004.84;;;1.89;87.49
10652;BME280;5374;42.742;23.266;2024-02-16T00:35:41;96012.16;;;1.93;88.24
10652;BME280;5374;42.742;23.266;2024-02-16T00:38:29;96016.22;;;1.81;88.04
10652;BME280;5374;42.742;23.266;2024-02-16T00:41:19;96064.00;;;2.13;87.90
10652;BME280;5374;42.742;23.266;2024-02-16T00:44:06;96064.53;;;2.23;87.42
10652;BME280;5374;42.742;23.266;2024-02-16T00:46:53;95993.06;;;1.78;87.33
10652;BME280;5374;42.742;23.266;2024-02-16T00:49:40;96002.94;;;1.83;87.45
10652;BME280;5374;42.742;23.266;2024-02-16T00:52:27;96045.03;;;1.96;86.99
10652;BME280;5374;42.742;23.266;2024-02-16T00:55:16;96055.41;;;2.04;87.17
10652;BME280;5374;42.742;23.266;2024-02-16T00:58:03;96066.81;;;2.26;87.13
10652;BME280;5374;42.742;23.266;2024-02-16T01:00:51;96026.09;;;1.79;87.37
10652;BME280;5374;42.742;23.266;2024-02-16T01:03:38;96011.44;;;1.85;87.47
10652;BME280;5374;42.742;23.266;2024-02-16T01:06:26;96064.91;;;2.20;87.48
10652;BME280;5374;42.742;23.266;2024-02-16T01:09:13;96066.88;;;2.18;87.09
10652;BME280;5374;42.742;23.266;2024-02-16T01:12:02;96047.13;;;2.00;87.06
10652;BME280;5374;42.742;23.266;2024-02-16T01:14:49;96017.31;;;1.72;86.71
10652;BME280;5374;42.742;23.266;2024-02-16T01:17:37;96063.81;;;2.14;87.16
10652;BME280;5374;42.742;23.266;2024-02-16T01:20:24;96058.56;;;2.14;87.00
10652;BME280;5374;42.742;23.266;2024-02-16T01:23:12;95995.47;;;1.65;86.87
10652;BME280;5374;42.742;23.266;2024-02-16T01:25:59;95989.78;;;1.61;85.79
10652;BME280;5374;42.742;23.266;2024-02-16T01:28:48;95982.56;;;1.63;85.72
10652;BME280;5374;42.742;23.266;2024-02-16T01:31:35;96054.81;;;2.02;86.38
10652;BME280;5374;42.742;23.266;2024-02-16T01:34:23;96027.09;;;1.78;86.93
10652;BME280;5374;42.742;23.266;2024-02-16T01:37:10;96041.34;;;1.76;87.26
10652;BME280;5374;42.742;23.266;2024-02-16T01:39:57;96040.06;;;1.86;87.41
10652;BME280;5374;42.742;23.266;2024-02-16T01:42:47;95987.16;;;1.47;87.56
10652;BME280;5374;42.742;23.266;2024-02-16T01:45:35;96058.31;;;1.94;87.35
10652;BME280;5374;42.742;23.266;2024-02-16T01:48:23;95984.19;;;1.35;88.17
10652;BME280;5374;42.742;23.266;2024-02-16T01:51:11;96070.13;;;1.90;88.01
10652;BME280;5374;42.742;23.266;2024-02-16T01:53:58;96049.19;;;1.90;88.21
10652;BME280;5374;42.742;23.266;2024-02-16T01:56:46;95993.84;;;1.34;87.85
10652;BME280;5374;42.742;23.266;2024-02-16T01:59:35;96052.16;;;1.87;88.29
10652;BME280;5374;42.742;23.266;2024-02-16T02:02:24;96045.31;;;1.86;87.97
10652;BME280;5374;42.742;23.266;2024-02-16T02:05:11;95983.44;;;1.41;87.96
10652;BME280;5374;42.742;23.266;2024-02-16T02:07:58;96000.88;;;1.49;88.21
10652;BME280;5374;42.742;23.266;2024-02-16T02:10:45;96037.00;;;1.68;88.05
10652;BME280;5374;42.742;23.266;2024-02-16T02:13:34;96051.06;;;1.82;88.55
10652;BME280;5374;42.742;23.266;2024-02-16T02:16:23;96050.66;;;1.78;88.48
10652;BME280;5374;42.742;23.266;2024-02-16T02:19:13;95985.19;;;1.34;87.94
10652;BME280;5374;42.742;23.266;2024-02-16T02:22:00;96051.53;;;1.70;88.17
10652;BME280;5374;42.742;23.266;2024-02-16T02:24:50;96002.94;;;1.38;88.25
10652;BME280;5374;42.742;23.266;2024-02-16T02:27:37;95992.28;;;1.25;87.96
10652;BME280;5374;42.742;23.266;2024-02-16T02:30:24;96051.78;;;1.61;88.19
10652;BME280;5374;42.742;23.266;2024-02-16T02:33:11;96003.09;;;1.22;87.89
10652;BME280;5374;42.742;23.266;2024-02-16T02:35:59;95973.56;;;0.99;87.71
10652;BME280;5374;42.742;23.266;2024-02-16T02:38:46;96035.78;;;1.41;87.83
10652;BME280;5374;42.742;23.266;2024-02-16T02:41:35;95991.06;;;1.13;87.83
10652;BME280;5374;42.742;23.266;2024-02-16T02:44:22;95985.84;;;1.13;87.85
10652;BME280;5374;42.742;23.266;2024-02-16T02:47:09;95982.97;;;1.08;88.44
10652;BME280;5374;42.742;23.266;2024-02-16T02:49:56;95991.63;;;1.09;88.24
10652;BME280;5374;42.742;23.266;2024-02-16T02:52:44;96012.75;;;1.22;88.36
10652;BME280;5374;42.742;23.266;2024-02-16T02:55:32;95981.00;;;1.10;88.29
10652;BME280;5374;42.742;23.266;2024-02-16T02:58:20;95986.00;;;0.97;87.65
10652;BME280;5374;42.742;23.266;2024-02-16T03:01:07;96023.38;;;1.20;87.94
10652;BME280;5374;42.742;23.266;2024-02-16T03:03:54;96024.38;;;1.19;88.04
10652;BME280;5374;42.742;23.266;2024-02-16T03:06:42;96026.22;;;1.33;88.09
10652;BME280;5374;42.742;23.266;2024-02-16T03:09:29;95944.97;;;0.60;88.06
10652;BME280;5374;42.742;23.266;2024-02-16T03:12:16;96047.16;;;1.48;88.16
10652;BME280;5374;42.742;23.266;2024-02-16T03:15:06;96059.25;;;1.49;88.42
10652;BME280;5374;42.742;23.266;2024-02-16T03:17:54;96061.25;;;1.47;89.04
10652;BME280;5374;42.742;23.266;2024-02-16T03:20:41;96062.59;;;1.43;89.58
10652;BME280;5374;42.742;23.266;2024-02-16T03:23:31;96063.22;;;1.45;89.38
10652;BME280;5374;42.742;23.266;2024-02-16T03:26:19;96047.97;;;1.34;88.95
10652;BME280;5374;42.742;23.266;2024-02-16T03:29:07;96038.84;;;1.30;88.51
10652;BME280;5374;42.742;23.266;2024-02-16T03:31:55;96018.13;;;1.06;88.10
10652;BME280;5374;42.742;23.266;2024-02-16T03:34:42;96058.69;;;1.39;88.44
10652;BME280;5374;42.742;23.266;2024-02-16T03:37:30;96061.13;;;1.41;86.79
10652;BME280;5374;42.742;23.266;2024-02-16T03:40:17;96057.16;;;1.30;87.77
10652;BME280;5374;42.742;23.266;2024-02-16T03:43:05;96009.31;;;0.84;87.87
10652;BME280;5374;42.742;23.266;2024-02-16T03:45:53;96016.22;;;0.77;88.17
10652;BME280;5374;42.742;23.266;2024-02-16T03:48:41;96056.41;;;1.21;88.16
10652;BME280;5374;42.742;23.266;2024-02-16T03:51:30;95997.28;;;0.75;87.11
10652;BME280;5374;42.742;23.266;2024-02-16T03:54:17;96064.25;;;0.98;86.90
10652;BME280;5374;42.742;23.266;2024-02-16T03:57:04;96052.75;;;1.08;88.05
10652;BME280;5374;42.742;23.266;2024-02-16T03:59:54;96054.09;;;1.03;88.80
10652;BME280;5374;42.742;23.266;2024-02-16T04:02:42;96053.41;;;1.10;88.56
10652;BME280;5374;42.742;23.266;2024-02-16T04:05:30;96048.84;;;1.03;88.96
10652;BME280;5374;42.742;23.266;2024-02-16T04:08:19;95986.13;;;0.58;89.11
10652;BME280;5374;42.742;23.266;2024-02-16T04:11:10;95984.69;;;0.55;89.13
10652;BME280;5374;42.742;23.266;2024-02-16T04:13:58;96021.47;;;0.68;88.88
10652;BME280;5374;42.742;23.266;2024-02-16T04:16:45;95968.63;;;0.44;87.97
10652;BME280;5374;42.742;23.266;2024-02-16T04:19:33;95982.75;;;0.49;88.65
10652;BME280;5374;42.742;23.266;2024-02-16T04:22:22;96048.19;;;0.87;89.36
10652;BME280;5374;42.742;23.266;2024-02-16T04:25:09;95992.66;;;0.62;89.68
10652;BME280;5374;42.742;23.266;2024-02-16T04:27:56;96001.22;;;0.48;89.95
10652;BME280;5374;42.742;23.266;2024-02-16T04:30:43;96018.88;;;0.68;90.50
10652;BME280;5374;42.742;23.266;2024-02-16T04:33:31;96059.88;;;0.91;90.33
10652;BME280;5374;42.742;23.266;2024-02-16T04:36:18;95972.06;;;0.36;89.88
10652;BME280;5374;42.742;23.266;2024-02-16T04:39:07;96050.97;;;0.85;89.25
10652;BME280;5374;42.742;23.266;2024-02-16T04:41:55;96056.19;;;0.85;88.91
10652;BME280;5374;42.742;23.266;2024-02-16T04:44:43;96015.38;;;0.53;89.70
10652;BME280;5374;42.742;23.266;2024-02-16T04:47:31;96009.88;;;0.48;89.64
10652;BME280;5374;42.742;23.266;2024-02-16T04:50:21;95976.34;;;0.29;90.00
10652;BME280;5374;42.742;23.266;2024-02-16T04:53:09;96046.28;;;0.73;88.41
10652;BME280;5374;42.742;23.266;2024-02-16T04:55:58;96059.97;;;0.83;89.43
10652;BME280;5374;42.742;23.266;2024-02-16T04:58:46;96043.09;;;0.62;90.01
10652;BME280;5374;42.742;23.266;2024-02-16T05:01:33;96009.13;;;0.40;90.63
10652;BME280;5374;42.742;23.266;2024-02-16T05:04:21;96079.94;;;0.76;90.79
10652;BME280;5374;42.742;23.266;2024-02-16T05:07:08;96073.72;;;0.77;90.92
10652;BME280;5374;42.742;23.266;2024-02-16T05:09:55;96050.19;;;0.46;91.08
10652;BME280;5374;42.742;23.266;2024-02-16T05:12:45;96040.53;;;0.54;90.96
10652;BME280;5374;42.742;23.266;2024-02-16T05:15:32;96068.19;;;0.72;90.64
10652;BME280;5374;42.742;23.266;2024-02-16T05:18:21;96090.69;;;0.81;90.61
10652;BME280;5374;42.742;23.266;2024-02-16T05:21:08;96088.75;;;0.75;89.89
10652;BME280;5374;42.742;23.266;2024-02-16T05:23:59;96033.09;;;0.43;90.02
10652;BME280;5374;42.742;23.266;2024-02-16T05:26:46;96098.50;;;0.89;89.53
10652;BME280;5374;42.742;23.266;2024-02-16T05:29:34;96102.09;;;0.88;89.46
10652;BME280;5374;42.742;23.266;2024-02-16T05:32:21;96058.34;;;0.51;89.45
10652;BME280;5374;42.742;23.266;2024-02-16T05:35:09;96106.16;;;0.90;89.62
10652;BME280;5374;42.742;23.266;2024-02-16T05:37:58;96107.25;;;0.96;89.71
10652;BME280;5374;42.742;23.266;2024-02-16T05:40:52;96056.09;;;0.71;89.33
10652;BME280;5374;42.742;23.266;2024-02-16T05:43:42;96073.03;;;0.83;88.36
10652;BME280;5374;42.742;23.266;2024-02-16T05:46:31;96110.84;;;1.18;88.03
10652;BME280;5374;42.742;23.266;2024-02-16T05:49:19;96063.50;;;0.90;87.53
10652;BME280;5374;42.742;23.266;2024-02-16T05:52:06;96118.13;;;1.30;87.50
10652;BME280;5374;42.742;23.266;2024-02-16T05:55:07;96058.56;;;0.95;87.42
10652;BME280;5374;42.742;23.266;2024-02-16T05:57:54;96113.47;;;1.41;86.19
10652;BME280;5374;42.742;23.266;2024-02-16T06:00:41;96124.22;;;1.46;86.16
10652;BME280;5374;42.742;23.266;2024-02-16T06:03:30;96070.94;;;1.24;85.47
10652;BME280;5374;42.742;23.266;2024-02-16T06:06:17;96120.47;;;1.63;85.93
10652;BME280;5374;42.742;23.266;2024-02-16T06:09:04;96082.34;;;1.46;86.11
10652;BME280;5374;42.742;23.266;2024-02-16T06:11:54;96128.53;;;1.76;85.93
10652;BME280;5374;42.742;23.266;2024-02-16T06:14:42;96130.72;;;1.87;84.85
10652;BME280;5374;42.742;23.266;2024-02-16T06:17:31;96121.00;;;1.96;84.99
10652;BME280;5374;42.742;23.266;2024-02-16T06:20:21;96074.56;;;1.75;84.22
10652;BME280;5374;42.742;23.266;2024-02-16T06:23:08;96070.41;;;1.95;83.67
10652;BME280;5374;42.742;23.266;2024-02-16T06:25:58;96068.13;;;2.72;84.49
10652;BME280;5374;42.742;23.266;2024-02-16T06:28:45;96113.94;;;6.07;72.97
10652;BME280;5374;42.742;23.266;2024-02-16T06:31:32;96059.28;;;10.02;53.99
10652;BME280;5374;42.742;23.266;2024-02-16T06:34:19;96075.75;;;13.04;45.66
10652;BME280;5374;42.742;23.266;2024-02-16T06:37:08;96105.59;;;17.02;38.18
10652;BME280;5374;42.742;23.266;2024-02-16T06:39:55;96113.31;;;19.89;32.28
10652;BME280;5374;42.742;23.266;2024-02-16T06:42:42;96118.22;;;22.08;29.16
10652;BME280;5374;42.742;23.266;2024-02-16T06:45:29;96128.22;;;24.02;26.51
10652;BME280;5374;42.742;23.266;2024-02-16T06:48:16;96112.38;;;25.58;24.22
10652;BME280;5374;42.742;23.266;2024-02-16T06:51:03;96127.47;;;26.80;22.94
10652;BME280;5374;42.742;23.266;2024-02-16T06:53:52;96143.09;;;27.73;21.89
10652;BME280;5374;42.742;23.266;2024-02-16T06:56:39;96139.72;;;28.56;20.49
10652;BME280;5374;42.742;23.266;2024-02-16T06:59:26;96140.78;;;27.51;21.37
10652;BME280;5374;42.742;23.266;2024-02-16T07:02:13;96146.09;;;24.63;23.36
10652;BME280;5374;42.742;23.266;2024-02-16T07:05:02;96142.28;;;23.07;25.10
10652;BME280;5374;42.742;23.266;2024-02-16T07:07:49;96136.75;;;22.59;25.55
10652;BME280;5374;42.742;23.266;2024-02-16T07:10:37;96132.91;;;22.38;25.87
10652;BME280;5374;42.742;23.266;2024-02-16T07:13:25;96134.28;;;21.77;26.86
10652;BME280;5374;42.742;23.266;2024-02-16T07:16:12;96132.25;;;20.73;27.58
10652;BME280;5374;42.742;23.266;2024-02-16T07:18:59;96128.13;;;19.92;28.57
10652;BME280;5374;42.742;23.266;2024-02-16T07:21:47;96124.38;;;20.76;27.81
10652;BME280;5374;42.742;23.266;2024-02-16T07:24:34;96123.06;;;21.83;26.73
10652;BME280;5374;42.742;23.266;2024-02-16T07:27:23;96119.16;;;20.80;27.63
10652;BME280;5374;42.742;23.266;2024-02-16T07:30:10;96082.91;;;18.51;30.31
10652;BME280;5374;42.742;23.266;2024-02-16T07:32:59;96131.34;;;17.13;32.65
10652;BME280;5374;42.742;23.266;2024-02-16T07:35:46;96109.44;;;15.79;35.35
10652;BME280;5374;42.742;23.266;2024-02-16T07:38:33;96128.09;;;14.86;37.07
10652;BME280;5374;42.742;23.266;2024-02-16T07:41:20;96116.03;;;14.10;37.83
10652;BME280;5374;42.742;23.266;2024-02-16T07:44:09;96121.88;;;13.48;39.00
10652;BME280;5374;42.742;23.266;2024-02-16T07:46:56;96125.09;;;13.06;40.05
10652;BME280;5374;42.742;23.266;2024-02-16T07:49:43;96121.53;;;12.57;41.77
10652;BME280;5374;42.742;23.266;2024-02-16T07:52:31;96121.47;;;12.18;42.93
10652;BME280;5374;42.742;23.266;2024-02-16T07:55:18;96119.44;;;11.92;44.59
10652;BME280;5374;42.742;23.266;2024-02-16T07:58:06;96097.44;;;11.51;45.69
10652;BME280;5374;42.742;23.266;2024-02-16T08:00:54;96126.13;;;11.49;45.91
10652;BME280;5374;42.742;23.266;2024-02-16T08:03:41;96128.81;;;11.38;46.10
10652;BME280;5374;42.742;23.266;2024-02-16T08:06:28;96119.06;;;11.15;48.06
10652;BME280;5374;42.742;23.266;2024-02-16T08:09:16;96135.53;;;11.00;48.63
10652;BME280;5374;42.742;23.266;2024-02-16T08:12:03;96124.00;;;10.94;49.42
10652;BME280;5374;42.742;23.266;2024-02-16T08:14:52;96128.47;;;11.06;49.55
10652;BME280;5374;42.742;23.266;2024-02-16T08:17:41;96121.56;;;11.05;49.48
10652;BME280;5374;42.742;23.266;2024-02-16T08:20:28;96116.25;;;10.93;49.37
10652;BME280;5374;42.742;23.266;2024-02-16T08:23:15;96106.44;;;10.93;49.10
10652;BME280;5374;42.742;23.266;2024-02-16T08:26:02;96113.63;;;10.81;49.65
10652;BME280;5374;42.742;23.266;2024-02-16T08:28:49;96115.56;;;10.98;50.12
10652;BME280;5374;42.742;23.266;2024-02-16T08:31:36;96114.50;;;10.99;50.56
10652;BME280;5374;42.742;23.266;2024-02-16T08:34:25;96087.72;;;10.88;50.19
10652;BME280;5374;42.742;23.266;2024-02-16T08:37:13;96108.69;;;11.13;49.96
10652;BME280;5374;42.742;23.266;2024-02-16T08:40:00;96111.31;;;11.25;50.28
10652;BME280;5374;42.742;23.266;2024-02-16T08:42:49;96089.16;;;11.08;49.86
10652;BME280;5374;42.742;23.266;2024-02-16T08:45:36;96112.63;;;11.39;49.86
10652;BME280;5374;42.742;23.266;2024-02-16T08:48:24;96121.19;;;11.41;49.86
10652;BME280;5374;42.742;23.266;2024-02-16T08:51:13;96113.25;;;11.29;50.65
10652;BME280;5374;42.742;23.266;2024-02-16T08:54:00;96108.19;;;11.28;51.49
10652;BME280;5374;42.742;23.266;2024-02-16T08:56:50;96114.31;;;11.28;51.28
10652;BME280;5374;42.742;23.266;2024-02-16T08:59:38;96111.38;;;11.30;51.08
10652;BME280;5374;42.742;23.266;2024-02-16T09:02:25;96110.59;;;11.29;50.93
10652;BME280;5374;42.742;23.266;2024-02-16T09:05:12;96118.31;;;11.31;53.00
10652;BME280;5374;42.742;23.266;2024-02-16T09:08:03;96114.81;;;11.42;50.19
10652;BME280;5374;42.742;23.266;2024-02-16T09:10:52;96112.16;;;11.42;50.18
10652;BME280;5374;42.742;23.266;2024-02-16T09:13:39;96100.66;;;11.53;50.15
10652;BME280;5374;42.742;23.266;2024-02-16T09:16:26;96114.63;;;11.60;51.03
10652;BME280;5374;42.742;23.266;2024-02-16T09:19:13;96116.84;;;11.80;50.83
10652;BME280;5374;42.742;23.266;2024-02-16T09:22:00;96121.63;;;11.95;49.53
10652;BME280;5374;42.742;23.266;2024-02-16T09:24:50;96119.63;;;12.19;50.97
10652;BME280;5374;42.742;23.266;2024-02-16T09:27:37;96107.19;;;12.41;51.02
10652;BME280;5374;42.742;23.266;2024-02-16T09:30:26;96104.56;;;12.63;47.83
10652;BME280;5374;42.742;23.266;2024-02-16T09:33:13;96108.47;;;12.77;47.31
10652;BME280;5374;42.742;23.266;2024-02-16T09:36:00;96090.56;;;12.34;47.69
10652;BME280;5374;42.742;23.266;2024-02-16T09:38:47;96106.91;;;12.59;46.79
10652;BME280;5374;42.742;23.266;2024-02-16T09:41:36;96084.72;;;12.54;48.13
10652;BME280;5374;42.742;23.266;2024-02-16T09:44:25;96093.22;;;12.73;48.55
10652;BME280;5374;42.742;23.266;2024-02-16T09:47:14;96101.53;;;12.76;46.60
10652;BME280;5374;42.742;23.266;2024-02-16T09:50:05;96097.66;;;12.67;46.85
10652;BME280;5374;42.742;23.266;2024-02-16T09:52:52;96097.56;;;13.00;46.52
10652;BME280;5374;42.742;23.266;2024-02-16T09:55:41;96091.00;;;13.08;47.12
10652;BME280;5374;42.742;23.266;2024-02-16T09:58:30;96089.94;;;13.09;45.17
10652;BME280;5374;42.742;23.266;2024-02-16T10:01:18;96049.69;;;12.89;45.43
10652;BME280;5374;42.742;23.266;2024-02-16T10:04:06;96095.97;;;13.21;45.03
10652;BME280;5374;42.742;23.266;2024-02-16T10:06:54;96086.47;;;13.30;45.09
10652;BME280;5374;42.742;23.266;2024-02-16T10:09:41;96057.09;;;13.04;45.96
10652;BME280;5374;42.742;23.266;2024-02-16T10:12:28;96054.41;;;13.25;45.48
10652;BME280;5374;42.742;23.266;2024-02-16T10:15:20;96077.13;;;13.28;45.24
10652;BME280;5374;42.742;23.266;2024-02-16T10:18:09;96071.22;;;13.26;45.70
10652;BME280;5374;42.742;23.266;2024-02-16T10:20:56;96058.53;;;13.38;45.17
10652;BME280;5374;42.742;23.266;2024-02-16T10:23:43;96057.53;;;13.44;45.53
10652;BME280;5374;42.742;23.266;2024-02-16T10:26:30;96051.59;;;13.37;45.43
10652;BME280;5374;42.742;23.266;2024-02-16T10:29:19;96047.16;;;13.48;45.38
10652;BME280;5374;42.742;23.266;2024-02-16T10:32:08;96054.44;;;13.57;44.44
10652;BME280;5374;42.742;23.266;2024-02-16T10:34:56;96047.56;;;13.61;44.50
10652;BME280;5374;42.742;23.266;2024-02-16T10:37:45;96049.34;;;13.56;44.79
10652;BME280;5374;42.742;23.266;2024-02-16T10:40:32;96049.28;;;13.19;45.96
10652;BME280;5374;42.742;23.266;2024-02-16T10:43:21;96037.66;;;13.30;45.20
10652;BME280;5374;42.742;23.266;2024-02-16T10:46:12;96035.50;;;13.27;45.20
10652;BME280;5374;42.742;23.266;2024-02-16T10:49:04;96030.91;;;13.00;45.62
10652;BME280;5374;42.742;23.266;2024-02-16T10:51:54;96031.72;;;13.23;45.37
10652;BME280;5374;42.742;23.266;2024-02-16T10:54:42;96020.50;;;13.21;45.53
10652;BME280;5374;42.742;23.266;2024-02-16T10:57:30;96028.34;;;13.11;45.60
10652;BME280;5374;42.742;23.266;2024-02-16T11:00:17;96023.81;;;13.11;45.28
10652;BME280;5374;42.742;23.266;2024-02-16T11:03:06;96025.44;;;13.12;45.64
10652;BME280;5374;42.742;23.266;2024-02-16T11:05:55;96025.91;;;12.82;46.31
10652;BME280;5374;42.742;23.266;2024-02-16T11:08:43;95996.53;;;12.55;47.63
10652;BME280;5374;42.742;23.266;2024-02-16T11:11:31;96007.03;;;12.62;46.06
10652;BME280;5374;42.742;23.266;2024-02-16T11:14:18;96015.19;;;12.77;46.15
10652;BME280;5374;42.742;23.266;2024-02-16T11:17:08;96012.69;;;12.92;46.04
10652;BME280;5374;42.742;23.266;2024-02-16T11:19:59;96006.06;;;12.95;45.71
10652;BME280;5374;42.742;23.266;2024-02-16T11:22:48;96009.81;;;13.21;45.26
10652;BME280;5374;42.742;23.266;2024-02-16T11:25:37;96006.78;;;13.39;45.82
10652;BME280;5374;42.742;23.266;2024-02-16T11:28:24;96006.91;;;13.22;45.32
10652;BME280;5374;42.742;23.266;2024-02-16T11:31:12;96001.88;;;13.26;44.93
10652;BME280;5374;42.742;23.266;2024-02-16T11:33:59;95988.13;;;13.39;44.64
10652;BME280;5374;42.742;23.266;2024-02-16T11:36:46;95986.69;;;13.58;44.30
10652;BME280;5374;42.742;23.266;2024-02-16T11:39:35;95989.59;;;13.57;45.54
10652;BME280;5374;42.742;23.266;2024-02-16T11:42:23;95977.00;;;13.47;44.38
10652;BME280;5374;42.742;23.266;2024-02-16T11:45:11;95983.75;;;13.28;45.03
10652;BME280;5374;42.742;23.266;2024-02-16T11:48:05;95989.72;;;13.40;44.25
10652;BME280;5374;42.742;23.266;2024-02-16T11:50:59;95985.63;;;13.59;44.42
10652;BME280;5374;42.742;23.266;2024-02-16T11:53:55;95977.06;;;13.57;44.62
10652;BME280;5374;42.742;23.266;2024-02-16T11:56:44;95979.31;;;13.71;44.17
10652;BME280;5374;42.742;23.266;2024-02-16T11:59:32;95973.97;;;13.71;44.45
10652;BME280;5374;42.742;23.266;2024-02-16T12:02:20;95968.03;;;13.63;43.90
10652;BME280;5374;42.742;23.266;2024-02-16T12:05:08;95967.84;;;13.38;44.62
10652;BME280;5374;42.742;23.266;2024-02-16T12:07:57;95974.72;;;13.66;44.30
10652;BME280;5374;42.742;23.266;2024-02-16T12:10:46;95934.09;;;13.54;43.84
10652;BME280;5374;42.742;23.266;2024-02-16T12:13:36;95973.94;;;13.65;43.80
10652;BME280;5374;42.742;23.266;2024-02-16T12:16:25;95961.22;;;13.78;43.96
10652;BME280;5374;42.742;23.266;2024-02-16T12:19:12;95957.22;;;13.80;43.81
10652;BME280;5374;42.742;23.266;2024-02-16T12:21:59;95961.72;;;13.75;44.30
10652;BME280;5374;42.742;23.266;2024-02-16T12:24:47;95950.78;;;13.39;44.46
10652;BME280;5374;42.742;23.266;2024-02-16T12:27:34;95956.06;;;13.34;45.27
10652;BME280;5374;42.742;23.266;2024-02-16T12:30:22;95944.59;;;13.33;45.15
10652;BME280;5374;42.742;23.266;2024-02-16T12:33:10;95961.59;;;13.00;45.43
10652;BME280;5374;42.742;23.266;2024-02-16T12:35:57;95941.47;;;12.61;45.74
10652;BME280;5374;42.742;23.266;2024-02-16T12:38:45;95954.97;;;13.03;46.14
10652;BME280;5374;42.742;23.266;2024-02-16T12:41:33;95952.81;;;13.27;46.20
10652;BME280;5374;42.742;23.266;2024-02-16T12:44:20;95952.88;;;13.32;45.51
10652;BME280;5374;42.742;23.266;2024-02-16T12:47:08;95952.19;;;13.47;44.86
10652;BME280;5374;42.742;23.266;2024-02-16T12:49:56;95940.75;;;13.51;44.44
10652;BME280;5374;42.742;23.266;2024-02-16T12:52:44;95946.03;;;13.46;45.33
10652;BME280;5374;42.742;23.266;2024-02-16T12:55:31;95943.56;;;13.40;46.11
10652;BME280;5374;42.742;23.266;2024-02-16T12:58:18;95943.97;;;13.53;45.25
10652;BME280;5374;42.742;23.266;2024-02-16T13:01:06;95950.38;;;13.57;45.28
10652;BME280;5374;42.742;23.266;2024-02-16T13:03:54;95951.94;;;13.48;45.49
10652;BME280;5374;42.742;23.266;2024-02-16T13:06:41;95943.63;;;13.45;46.18
10652;BME280;5374;42.742;23.266;2024-02-16T13:09:30;95940.66;;;13.14;46.78
10652;BME280;5374;42.742;23.266;2024-02-16T13:12:18;95925.84;;;13.23;46.01
10652;BME280;5374;42.742;23.266;2024-02-16T13:15:08;95938.72;;;13.31;45.52
10652;BME280;5374;42.742;23.266;2024-02-16T13:17:56;95932.53;;;13.26;45.92
10652;BME280;5374;42.742;23.266;2024-02-16T13:20:45;95942.78;;;13.39;45.39
10652;BME280;5374;42.742;23.266;2024-02-16T13:23:32;95932.34;;;13.32;45.17
10652;BME280;5374;42.742;23.266;2024-02-16T13:26:19;95934.72;;;13.34;45.76
10652;BME280;5374;42.742;23.266;2024-02-16T13:29:06;95928.38;;;13.40;45.46
10652;BME280;5374;42.742;23.266;2024-02-16T13:31:54;95927.44;;;13.24;45.31
10652;BME280;5374;42.742;23.266;2024-02-16T13:34:41;95930.19;;;13.34;45.34
10652;BME280;5374;42.742;23.266;2024-02-16T13:37:30;95929.88;;;13.26;46.49
10652;BME280;5374;42.742;23.266;2024-02-16T13:40:17;95903.09;;;13.16;46.23
10652;BME280;5374;42.742;23.266;2024-02-16T13:43:04;95927.25;;;13.36;46.15
10652;BME280;5374;42.742;23.266;2024-02-16T13:45:53;95903.09;;;13.16;46.08
10652;BME280;5374;42.742;23.266;2024-02-16T13:48:43;95927.00;;;13.32;46.08
10652;BME280;5374;42.742;23.266;2024-02-16T13:51:30;95919.75;;;13.28;46.47
10652;BME280;5374;42.742;23.266;2024-02-16T13:54:19;95915.28;;;13.07;47.12
10652;BME280;5374;42.742;23.266;2024-02-16T13:57:07;95920.06;;;13.05;47.14
10652;BME280;5374;42.742;23.266;2024-02-16T13:59:55;95930.09;;;12.71;48.01
10652;BME280;5374;42.742;23.266;2024-02-16T14:02:42;95928.41;;;12.86;48.20
10652;BME280;5374;42.742;23.266;2024-02-16T14:05:30;95898.91;;;12.44;48.68
10652;BME280;5374;42.742;23.266;2024-02-16T14:08:17;95935.34;;;12.87;48.11
10652;BME280;5374;42.742;23.266;2024-02-16T14:11:06;95919.25;;;12.77;48.22
10652;BME280;5374;42.742;23.266;2024-02-16T14:13:54;95929.78;;;12.67;48.98
10652;BME280;5374;42.742;23.266;2024-02-16T14:16:41;95929.75;;;12.62;49.10
10652;BME280;5374;42.742;23.266;2024-02-16T14:19:28;95923.94;;;12.43;49.03
10652;BME280;5374;42.742;23.266;2024-02-16T14:22:16;95935.38;;;12.65;48.63
10652;BME280;5374;42.742;23.266;2024-02-16T14:25:03;95932.47;;;12.67;48.71
10652;BME280;5374;42.742;23.266;2024-02-16T14:27:52;95928.06;;;12.78;48.60
10652;BME280;5374;42.742;23.266;2024-02-16T14:30:39;95928.91;;;12.83;48.15
10652;BME280;5374;42.742;23.266;2024-02-16T14:33:27;95935.28;;;12.82;47.90
10652;BME280;5374;42.742;23.266;2024-02-16T14:36:15;95941.13;;;12.79;47.93
10652;BME280;5374;42.742;23.266;2024-02-16T14:39:02;95928.09;;;12.83;47.94
10652;BME280;5374;42.742;23.266;2024-02-16T14:41:49;95940.13;;;12.85;47.69
10652;BME280;5374;42.742;23.266;2024-02-16T14:44:38;95938.34;;;12.69;48.38
10652;BME280;5374;42.742;23.266;2024-02-16T14:47:25;95941.59;;;12.49;48.26
10652;BME280;5374;42.742;23.266;2024-02-16T14:50:12;95942.06;;;12.68;48.37
10652;BME280;5374;42.742;23.266;2024-02-16T14:53:00;95940.66;;;12.60;48.90
10652;BME280;5374;42.742;23.266;2024-02-16T14:55:48;95946.72;;;12.56;49.11